DW4531 Weather Reports


Display with metric or nautical units.
time (UTC)temp
F
wind
direction
speed
MPH
gust
MPH
rain 1hr
in
rain 24hr
in
rain mn
in
humidity
%
barometer
mb
20190326191517 67 263 3.0 6.0 0.00 0.00 0.00 64 1017.1
20190326190033 66 270 1.0 9.0 0.00 0.00 0.00 67 1017.2
20190326184512 66 298 2.0 8.0 0.00 0.00 0.00 67 1017.3
20190326183050 66 86 1.0 6.0 0.00 0.00 0.00 68 1017.5
20190326181510 65 313 2.0 5.0 0.00 0.00 0.00 70 1017.7
20190326180007 64 95 2.0 5.0 0.00 0.00 0.00 70 1017.9
20190326174631 61 176 2.0 4.0 0.00 0.00 0.00 76 1017.9
20190326173157 60 85 2.0 4.0 0.00 0.00 0.00 77 1018.1
20190326171706 58 276 0.0 3.0 0.00 0.00 0.00 78 1018.2
20190326170153 57 266 1.0 4.0 0.00 0.00 0.00 78 1018.2
20190326164624 55 152 2.0 5.0 0.00 0.00 0.00 80 1018.1
20190326163140 54 201 2.0 5.0 0.00 0.00 0.00 81 1018.1
20190326161616 53 153 2.0 4.0 0.00 0.00 0.00 84 1018.0
20190326160147 51 139 3.0 5.0 0.00 0.00 0.00 85 1017.9
20190326154552 49 117 2.0 3.0 0.00 0.00 0.00 87 1017.9
20190326153038 47 117 0.0 3.0 0.00 0.00 0.00 89 1017.8
20190326151538 46 117 1.0 3.0 0.00 0.00 0.00 90 1017.7
20190326150109 45 129 1.0 2.0 0.00 0.00 0.00 92 1017.6
20190326144556 0 0.0 0.0 0.00 0.00 0.00 1017.5
20190326143047 0 0.0 0.0 0.00 0.00 0.00 1017.3
20190326141608 0 0.0 0.0 0.00 0.00 0.00 1017.2
20190326140013 0 0.0 0.0 0.00 0.00 0.00 1017.3
20190326134534 0 0.0 0.0 0.00 0.00 0.00 1017.3
20190326133012 0 0.0 0.0 0.00 0.00 0.00 1017.3
20190326131844 0 0.0 0.0 0.00 0.00 0.00 1017.1
20190326130202 0 0.0 0.0 0.00 0.00 0.00 1017.2
20190326124735 0 0.0 0.0 0.00 0.00 0.00 1017.1
20190326123128 0 0.0 0.0 0.00 0.00 0.00 1017.1
20190326121614 43 69 0.0 0.0 0.00 0.00 0.00 91 1016.9
20190326120108 45 74 0.0 0.0 0.00 0.00 0.00 91 1016.7
20190326114626 45 74 0.0 0.0 0.00 0.00 0.00 91 1016.8
20190326113122 45 74 0.0 0.0 0.00 0.00 0.00 91 1016.9
20190326111604 45 74 0.0 0.0 0.00 0.00 0.00 92 1017.0
20190326110044 44 74 0.0 0.0 0.00 0.00 0.00 92 1017.0
20190326104550 44 72 0.0 0.0 0.00 0.00 0.00 92 1017.3
20190326103058 44 72 0.0 0.0 0.00 0.00 0.00 91 1017.4
20190326101633 45 72 0.0 0.0 0.00 0.00 0.00 92 1017.5
20190326100109 45 72 0.0 0.0 0.00 0.00 0.00 92 1017.7
20190326094611 45 72 0.0 0.0 0.00 0.00 0.00 92 1017.8
20190326093051 45 72 0.0 0.0 0.00 0.00 0.00 92 1018.0
20190326091530 45 344 0.0 0.0 0.00 0.00 0.00 91 1018.2
20190326090027 45 356 0.0 0.0 0.00 0.00 0.00 91 1018.3
20190326084552 46 352 0.0 0.0 0.00 0.00 0.00 91 1018.4
20190326083030 46 343 0.0 0.0 0.00 0.00 0.00 91 1018.5
20190326081509 47 336 0.0 0.0 0.00 0.00 0.00 90 1018.7
20190326080010 47 335 0.0 0.0 0.00 0.00 0.00 90 1018.7
20190326074506 47 336 0.0 1.0 0.00 0.00 0.00 90 1019.0
20190326073012 47 326 0.0 1.0 0.00 0.00 0.00 89 1019.1
20190326071801 48 326 0.0 1.0 0.00 0.00 0.00 90 1019.0
20190326070248 48 326 0.0 1.0 0.00 0.00 0.00 89 1019.2
20190326064823 48 326 0.0 0.0 0.00 0.00 0.00 89 1019.3
20190326063149 48 326 0.0 1.0 0.00 0.00 0.00 89 1019.4
20190326061752 49 326 0.0 1.0 0.00 0.00 0.00 88 1019.5
20190326060138 49 326 0.0 1.0 0.00 0.00 0.00 87 1019.5
20190326054631 50 325 0.0 1.0 0.00 0.00 0.00 87 1019.5
20190326053137 49 325 0.0 1.0 0.00 0.00 0.00 87 1019.5
20190326051615 50 325 0.0 1.0 0.00 0.00 0.00 87 1019.6
20190326050151 50 325 0.0 1.0 0.00 0.00 0.00 87 1019.5
20190326044603 49 325 0.0 0.0 0.00 0.00 0.00 89 1019.5
20190326043157 50 325 0.0 0.0 0.00 0.00 0.00 88 1019.4
20190326041621 51 324 0.0 1.0 0.00 0.00 0.00 88 1019.5
20190326040134 51 325 0.0 1.0 0.00 0.00 0.00 88 1019.4
20190326034648 52 325 1.0 4.0 0.00 0.00 0.00 87 1019.3
20190326033129 52 329 1.0 4.0 0.00 0.00 0.00 87 1019.1
20190326031628 52 347 2.0 4.0 0.00 0.00 0.00 86 1019.1
20190326030107 53 338 1.0 4.0 0.00 0.00 0.00 84 1018.9
20190326024642 54 333 2.0 4.0 0.00 0.00 0.00 80 1018.8
20190326023117 55 338 2.0 4.0 0.00 0.00 0.00 76 1018.8
20190326021618 57 285 1.0 4.0 0.00 0.00 0.00 73 1018.6
20190326020155 59 308 2.0 5.0 0.00 0.00 0.00 67 1018.5
20190326014603 61 257 1.0 6.0 0.00 0.00 0.00 60 1018.5
20190326013133 63 290 1.0 6.0 0.00 0.00 0.00 51 1018.4
20190326011620 63 309 3.0 6.0 0.00 0.00 0.00 51 1018.5
20190326010103 65 300 3.0 7.0 0.00 0.00 0.00 42 1018.5
20190326004621 65 316 3.0 7.0 0.00 0.00 0.00 36 1018.5
20190326003102 65 255 3.0 9.0 0.00 0.00 0.00 33 1018.5
20190326001643 65 300 5.0 9.0 0.00 0.00 0.00 37 1018.6
20190326000159 66 301 4.0 8.0 0.00 0.00 0.00 38 1018.7
20190325234622 67 296 3.0 12.0 0.00 0.00 0.00 36 1018.8
20190325233036 68 328 2.0 8.0 0.00 0.00 0.00 34 1018.9
20190325231537 68 336 3.0 8.0 0.00 0.00 0.00 35 1018.9
20190325230030 67 319 3.0 7.0 0.00 0.00 0.00 41 1019.2
20190325224608 66 285 3.0 9.0 0.00 0.00 0.00 40 1019.4
20190325223029 67 308 3.0 8.0 0.00 0.00 0.00 39 1019.6
20190325221551 68 263 3.0 8.0 0.00 0.00 0.00 35 1019.8
20190325220041 68 329 4.0 8.0 0.00 0.00 0.00 33 1019.8
20190325214529 67 1 3.0 9.0 0.00 0.00 0.00 36 1019.9
20190325213018 67 356 1.0 8.0 0.00 0.00 0.00 39 1020.2
20190325211532 66 259 3.0 9.0 0.00 0.00 0.00 42 1020.4
20190325210045 65 322 3.0 9.0 0.00 0.00 0.00 46 1020.5
20190325204528 64 302 2.0 7.0 0.00 0.00 0.00 50 1020.9
20190325203008 63 252 2.0 8.0 0.00 0.00 0.00 53 1021.1
20190325201512 63 342 4.0 8.0 0.00 0.00 0.00 59 1021.3
20190325200016 63 339 4.0 7.0 0.00 0.00 0.00 62 1021.4
20190325194648 61 266 5.0 10.0 0.00 0.00 0.00 64 1021.4
20190325193141 61 294 2.0 9.0 0.00 0.00 0.00 67 1021.6